Time;durP1;ratioP1;P1;durP2;ratioP2;P2;SDS_P1;SDS_P2;PMS_P1;PMS_P2;Temp;Humidity;BMP_temperature;BMP_pressure;BME280_temperature;BME280_humidity;BME280_pressure;Samples;Min_cycle;Max_cycle;Signal;HPM_P1;HPM_P2
2022/08/23 00:01:45;;;;;;;4.30;1.73;;;;;;;;;;5019183;28;20073;-64
2022/08/23 00:04:14;;;;;;;5.32;1.75;;;;;;;;;;5007924;28;20064;-62
2022/08/23 00:06:41;;;;;;;2.80;1.45;;;;;;;;;;5004348;28;20088;-62
2022/08/23 00:09:08;;;;;;;3.10;1.50;;;;;;;;;;5027230;28;20057;-64
2022/08/23 00:11:36;;;;;;;9.23;2.20;;;;;;;;;;5026643;28;20061;-59
2022/08/23 00:14:05;;;;;;;3.28;1.60;;;;;;;;;;5026677;28;20064;-64
2022/08/23 00:16:32;;;;;;;5.28;1.75;;;;;;;;;;5026182;28;20057;-63
2022/08/23 00:18:59;;;;;;;4.97;1.80;;;;;;;;;;5022637;28;20072;-64
2022/08/23 00:21:29;;;;;;;4.90;1.60;;;;;;;;;;5027314;28;20065;-64
2022/08/23 00:23:55;;;;;;;3.00;1.58;;;;;;;;;;5020435;28;20049;-63
2022/08/23 00:26:22;;;;;;;5.95;1.88;;;;;;;;;;5027221;28;20057;-64
2022/08/23 00:28:48;;;;;;;3.45;1.38;;;;;;;;;;5021495;28;20041;-65
2022/08/23 00:31:17;;;;;;;9.75;1.75;;;;;;;;;;5026817;28;20041;-64
2022/08/23 00:33:44;;;;;;;8.75;2.08;;;;;;;;;;5022390;28;20076;-59
2022/08/23 00:36:11;;;;;;;4.10;1.50;;;;;;;;;;5026392;28;20065;-62
2022/08/23 00:38:39;;;;;;;3.35;1.60;;;;;;;;;;5020901;28;20068;-64
2022/08/23 00:41:06;;;;;;;3.00;1.55;;;;;;;;;;5026573;28;20114;-58
2022/08/23 00:49:11;;;;;;;7.47;1.70;;;;;;;;;;5010989;28;20057;-58
2022/08/23 00:51:42;;;;;;;3.37;1.50;;;;;;;;;;5027124;28;20252;-60
2022/08/23 00:54:11;;;;;;;5.03;1.40;;;;;;;;;;5014922;28;20108;-60
2022/08/23 00:56:39;;;;;;;6.57;2.10;;;;;;;;;;5007776;28;20057;-60
2022/08/23 00:59:05;;;;;;;3.25;1.40;;;;;;;;;;5009146;28;20059;-59
2022/08/23 01:01:33;;;;;;;3.40;1.58;;;;;;;;;;5027061;28;20045;-63
2022/08/23 01:03:59;;;;;;;3.47;1.60;;;;;;;;;;5017958;28;20091;-59
2022/08/23 01:06:28;;;;;;;5.20;1.65;;;;;;;;;;5020988;28;20060;-59
2022/08/23 01:08:56;;;;;;;6.35;2.08;;;;;;;;;;5025417;28;20049;-60
2022/08/23 01:11:26;;;;;;;3.45;1.73;;;;;;;;;;5023537;28;20061;-64
2022/08/23 01:13:55;;;;;;;3.13;1.50;;;;;;;;;;5026417;28;20111;-64
2022/08/23 01:16:24;;;;;;;5.10;1.58;;;;;;;;;;5018410;28;20041;-62
2022/08/23 01:18:51;;;;;;;3.35;1.48;;;;;;;;;;5026841;28;20057;-62
2022/08/23 01:21:21;;;;;;;3.67;1.80;;;;;;;;;;5021334;28;20068;-63
2022/08/23 01:23:51;;;;;;;5.00;1.65;;;;;;;;;;5026593;28;20065;-63
2022/08/23 01:26:19;;;;;;;3.80;1.40;;;;;;;;;;5020611;28;20045;-62
2022/08/23 01:28:45;;;;;;;5.88;1.60;;;;;;;;;;5026908;28;20059;-63
2022/08/23 01:31:13;;;;;;;4.05;1.70;;;;;;;;;;5019700;28;20057;-64
2022/08/23 01:33:40;;;;;;;3.05;1.70;;;;;;;;;;5026549;28;20057;-64
2022/08/23 01:36:09;;;;;;;3.95;1.40;;;;;;;;;;5020979;28;20077;-59
2022/08/23 01:38:35;;;;;;;4.20;1.52;;;;;;;;;;5026194;28;20053;-59
2022/08/23 01:41:05;;;;;;;3.75;1.50;;;;;;;;;;5021316;28;20049;-63
2022/08/23 01:43:32;;;;;;;2.75;1.70;;;;;;;;;;5024986;28;20049;-64
2022/08/23 01:46:06;;;;;;;3.33;1.50;;;;;;;;;;5021217;28;20041;-64
2022/08/23 01:48:32;;;;;;;3.47;1.50;;;;;;;;;;5025860;28;20046;-64
2022/08/23 01:50:59;;;;;;;3.25;1.30;;;;;;;;;;5015611;28;20061;-61
2022/08/23 01:53:26;;;;;;;6.88;1.40;;;;;;;;;;5030439;28;20057;-65
2022/08/23 01:55:52;;;;;;;2.15;1.20;;;;;;;;;;5024292;28;20049;-62
2022/08/23 01:58:21;;;;;;;4.18;1.50;;;;;;;;;;5030068;28;20141;-62
2022/08/23 02:00:49;;;;;;;4.85;1.52;;;;;;;;;;5027213;28;20158;-64
2022/08/23 02:03:15;;;;;;;4.10;1.65;;;;;;;;;;5024171;28;20049;-63
2022/08/23 02:05:44;;;;;;;6.13;1.70;;;;;;;;;;5029547;28;20062;-62
2022/08/23 02:10:55;;;;;;;3.65;1.48;;;;;;;;;;5030171;28;19932;-63
2022/08/23 02:13:24;;;;;;;2.47;1.27;;;;;;;;;;5023895;28;20115;-62
2022/08/23 02:15:51;;;;;;;2.45;1.30;;;;;;;;;;5029069;28;20084;-64
2022/08/23 02:18:18;;;;;;;3.22;1.45;;;;;;;;;;5023211;28;20136;-63
2022/08/23 02:20:46;;;;;;;2.85;1.50;;;;;;;;;;5030002;28;20141;-64
2022/08/23 02:23:12;;;;;;;2.57;1.53;;;;;;;;;;5023724;28;20065;-64
2022/08/23 02:25:39;;;;;;;3.67;1.35;;;;;;;;;;5029597;28;20053;-64
2022/08/23 02:28:06;;;;;;;2.95;1.52;;;;;;;;;;5023222;28;20053;-63
2022/08/23 02:30:34;;;;;;;3.72;1.60;;;;;;;;;;5029029;28;20048;-62
2022/08/23 02:33:00;;;;;;;5.55;1.60;;;;;;;;;;5025039;28;20131;-63
2022/08/23 02:35:27;;;;;;;2.92;1.40;;;;;;;;;;5030549;28;20064;-63
2022/08/23 02:37:54;;;;;;;4.65;1.77;;;;;;;;;;5020461;28;20053;-64
2022/08/23 02:40:22;;;;;;;6.28;1.60;;;;;;;;;;5009250;28;20053;-63
2022/08/23 02:42:48;;;;;;;2.92;1.52;;;;;;;;;;5004906;28;20053;-63
2022/08/23 02:45:16;;;;;;;5.00;1.65;;;;;;;;;;5009558;28;20064;-63
2022/08/23 02:47:44;;;;;;;4.13;1.60;;;;;;;;;;5009387;28;20053;-64
2022/08/23 02:50:11;;;;;;;5.03;2.05;;;;;;;;;;5021062;28;20107;-64
2022/08/23 02:52:38;;;;;;;3.25;1.75;;;;;;;;;;5010016;28;20053;-65
2022/08/23 02:55:06;;;;;;;3.05;1.45;;;;;;;;;;5021149;28;20049;-62
2022/08/23 02:57:33;;;;;;;3.78;1.80;;;;;;;;;;5029272;28;20049;-64
2022/08/23 03:00:00;;;;;;;2.85;1.60;;;;;;;;;;5009946;28;20060;-64
2022/08/23 03:02:27;;;;;;;11.07;1.80;;;;;;;;;;5009851;28;20057;-64
2022/08/23 03:04:55;;;;;;;4.05;1.80;;;;;;;;;;5016127;28;20049;-65
2022/08/23 03:07:21;;;;;;;3.35;1.70;;;;;;;;;;5029165;28;20057;-64
2022/08/23 03:09:49;;;;;;;3.63;1.70;;;;;;;;;;5023796;28;20056;-64
2022/08/23 03:12:15;;;;;;;2.45;1.40;;;;;;;;;;5031764;28;20272;-63
2022/08/23 03:14:42;;;;;;;3.55;1.50;;;;;;;;;;5023118;28;20049;-62
2022/08/23 03:17:09;;;;;;;2.65;1.60;;;;;;;;;;5029811;28;20115;-63
2022/08/23 03:19:36;;;;;;;4.68;1.60;;;;;;;;;;5023407;28;20053;-64
2022/08/23 03:22:04;;;;;;;3.85;1.45;;;;;;;;;;5029083;28;20080;-63
2022/08/23 03:24:30;;;;;;;3.45;1.50;;;;;;;;;;5023264;28;20064;-63
2022/08/23 03:26:57;;;;;;;3.58;1.58;;;;;;;;;;5028741;28;20053;-63
2022/08/23 03:29:24;;;;;;;4.03;1.70;;;;;;;;;;5026806;28;20053;-60
2022/08/23 03:31:51;;;;;;;3.70;1.60;;;;;;;;;;5020734;28;20140;-64
2022/08/23 03:34:17;;;;;;;3.88;1.55;;;;;;;;;;5028591;28;20077;-63
2022/08/23 03:36:44;;;;;;;4.20;1.70;;;;;;;;;;5022940;28;20061;-63
2022/08/23 03:39:12;;;;;;;3.30;1.70;;;;;;;;;;5027915;28;20069;-63
2022/08/23 03:41:40;;;;;;;3.40;1.70;;;;;;;;;;5023024;28;20050;-63
2022/08/23 03:44:06;;;;;;;4.77;1.87;;;;;;;;;;5027872;28;20065;-63
2022/08/23 03:46:33;;;;;;;3.35;1.73;;;;;;;;;;5022563;28;20320;-64
2022/08/23 03:49:01;;;;;;;4.28;1.70;;;;;;;;;;5028112;28;20057;-64
2022/08/23 03:51:28;;;;;;;2.80;1.53;;;;;;;;;;5022845;28;20152;-64
2022/08/23 03:53:56;;;;;;;2.95;1.65;;;;;;;;;;5027707;28;20298;-64
2022/08/23 03:56:25;;;;;;;3.17;1.60;;;;;;;;;;5021509;28;20069;-63
2022/08/23 03:58:52;;;;;;;7.63;3.10;;;;;;;;;;5025460;28;20049;-61
2022/08/23 04:01:19;;;;;;;3.38;1.80;;;;;;;;;;5017547;28;20034;-64
2022/08/23 04:03:46;;;;;;;4.47;1.70;;;;;;;;;;5027714;28;20057;-63
2022/08/23 04:06:13;;;;;;;3.83;1.75;;;;;;;;;;5022039;28;20057;-64
2022/08/23 04:08:40;;;;;;;8.43;3.10;;;;;;;;;;5027476;28;20056;-64
2022/08/23 04:11:06;;;;;;;6.50;2.75;;;;;;;;;;5024202;28;20115;-62
2022/08/23 04:13:35;;;;;;;4.72;2.38;;;;;;;;;;5008704;28;20054;-63
2022/08/23 04:16:02;;;;;;;3.40;1.73;;;;;;;;;;5007510;28;20062;-64
2022/08/23 04:18:30;;;;;;;3.22;1.63;;;;;;;;;;5020078;28;20057;-63
2022/08/23 04:20:58;;;;;;;3.35;1.65;;;;;;;;;;5027743;28;20066;-62
2022/08/23 04:23:26;;;;;;;5.25;1.83;;;;;;;;;;5022510;28;20103;-64
2022/08/23 04:25:53;;;;;;;3.90;2.00;;;;;;;;;;5027875;28;20050;-61
2022/08/23 04:28:20;;;;;;;6.32;2.30;;;;;;;;;;5020701;28;20053;-63
2022/08/23 04:30:49;;;;;;;5.53;2.17;;;;;;;;;;5027606;28;20057;-63
2022/08/23 04:33:16;;;;;;;4.05;1.80;;;;;;;;;;5008868;28;20065;-64
2022/08/23 04:35:43;;;;;;;4.03;1.85;;;;;;;;;;5008245;28;20058;-63
2022/08/23 04:38:10;;;;;;;5.63;2.20;;;;;;;;;;5003401;28;20046;-62
2022/08/23 04:43:24;;;;;;;3.95;2.13;;;;;;;;;;5011739;28;20059;-64
2022/08/23 04:45:52;;;;;;;11.77;3.25;;;;;;;;;;5028121;28;20049;-64
2022/08/23 04:48:18;;;;;;;4.32;2.00;;;;;;;;;;5022848;28;20049;-61
2022/08/23 04:50:45;;;;;;;6.38;2.03;;;;;;;;;;5027482;28;20054;-63
2022/08/23 04:53:12;;;;;;;4.80;1.88;;;;;;;;;;5022187;28;20061;-64
2022/08/23 04:55:38;;;;;;;3.33;1.92;;;;;;;;;;5027002;28;20061;-59
2022/08/23 04:58:05;;;;;;;4.43;2.10;;;;;;;;;;5015186;28;20061;-66
2022/08/23 05:00:32;;;;;;;5.18;2.10;;;;;;;;;;5023113;28;20049;-64
2022/08/23 05:03:00;;;;;;;3.65;1.80;;;;;;;;;;5024389;28;20053;-63
2022/08/23 05:05:27;;;;;;;4.03;1.88;;;;;;;;;;5020990;28;20099;-64
2022/08/23 05:07:54;;;;;;;3.20;1.88;;;;;;;;;;5021182;28;20087;-65
2022/08/23 05:10:21;;;;;;;3.30;1.95;;;;;;;;;;5012756;28;20060;-65
2022/08/23 05:12:48;;;;;;;4.78;2.17;;;;;;;;;;5019009;28;20058;-64
2022/08/23 05:15:14;;;;;;;4.40;2.10;;;;;;;;;;5017771;28;20080;-63
2022/08/23 05:17:41;;;;;;;4.50;1.80;;;;;;;;;;5022266;28;20049;-64
2022/08/23 05:20:10;;;;;;;4.22;2.00;;;;;;;;;;5011271;28;20053;-64
2022/08/23 05:22:38;;;;;;;5.60;2.30;;;;;;;;;;5019432;28;20084;-62
2022/08/23 05:25:05;;;;;;;7.10;2.00;;;;;;;;;;5017366;28;20123;-62
2022/08/23 05:27:31;;;;;;;4.88;2.10;;;;;;;;;;5021757;28;20061;-64
2022/08/23 05:29:58;;;;;;;3.35;1.75;;;;;;;;;;5017321;28;20045;-62
2022/08/23 05:32:25;;;;;;;5.60;2.25;;;;;;;;;;5026102;28;20048;-64
2022/08/23 05:34:51;;;;;;;5.43;2.13;;;;;;;;;;5020358;28;20049;-64
2022/08/23 05:37:19;;;;;;;5.38;2.55;;;;;;;;;;5026233;28;20065;-63
2022/08/23 05:39:47;;;;;;;4.50;2.33;;;;;;;;;;5020699;28;20122;-64
2022/08/23 05:42:15;;;;;;;3.72;2.08;;;;;;;;;;5026093;28;20050;-64
2022/08/23 05:44:42;;;;;;;4.25;2.10;;;;;;;;;;5022067;28;20053;-62
2022/08/23 05:47:10;;;;;;;4.07;2.05;;;;;;;;;;5025373;28;20076;-65
2022/08/23 05:49:38;;;;;;;4.07;2.00;;;;;;;;;;5026770;28;20045;-64
2022/08/23 05:52:06;;;;;;;5.60;2.17;;;;;;;;;;5020647;28;20081;-63
2022/08/23 05:54:34;;;;;;;9.25;2.95;;;;;;;;;;5025940;28;20046;-64
2022/08/23 05:57:01;;;;;;;6.20;2.38;;;;;;;;;;5020340;28;20053;-65
2022/08/23 05:59:27;;;;;;;4.78;1.80;;;;;;;;;;5026209;28;20156;-65
2022/08/23 06:01:54;;;;;;;4.80;2.55;;;;;;;;;;5020631;28;20058;-66
2022/08/23 06:04:22;;;;;;;4.90;2.17;;;;;;;;;;5022343;28;20049;-64
2022/08/23 06:06:48;;;;;;;4.70;2.05;;;;;;;;;;5019600;28;20061;-65
2022/08/23 06:09:17;;;;;;;4.32;2.10;;;;;;;;;;5024729;28;20075;-65
2022/08/23 06:11:46;;;;;;;5.28;2.47;;;;;;;;;;5019802;28;20054;-65
2022/08/23 06:14:13;;;;;;;4.40;2.15;;;;;;;;;;5024780;28;20059;-65
2022/08/23 06:16:41;;;;;;;5.35;2.38;;;;;;;;;;5021409;28;20068;-65
2022/08/23 06:19:08;;;;;;;6.00;2.78;;;;;;;;;;5026667;28;20117;-66
2022/08/23 06:21:37;;;;;;;10.73;5.03;;;;;;;;;;5022221;28;20045;-63
2022/08/23 06:24:03;;;;;;;;;;;;;;;;;;5028830;28;20056;-64
2022/08/23 06:26:31;;;;;;;8.90;3.35;;;;;;;;;;5020636;28;19924;-65
2022/08/23 06:29:01;;;;;;;5.25;2.10;;;;;;;;;;5025867;28;20053;-64
2022/08/23 06:31:46;;;;;;;4.20;2.20;;;;;;;;;;5026517;28;20058;-62
2022/08/23 06:34:14;;;;;;;6.93;2.20;;;;;;;;;;5025626;28;20049;-61
2022/08/23 06:36:41;;;;;;;11.40;4.13;;;;;;;;;;5023687;28;20057;-63
2022/08/23 06:39:09;;;;;;;8.05;3.72;;;;;;;;;;5026038;28;20054;-62
2022/08/23 06:41:36;;;;;;;6.70;2.83;;;;;;;;;;5029060;28;20053;-65
2022/08/23 06:44:05;;;;;;;13.27;5.53;;;;;;;;;;5023934;28;20056;-63
2022/08/23 06:46:32;;;;;;;13.02;4.78;;;;;;;;;;5029044;28;20071;-65
2022/08/23 06:48:59;;;;;;;5.15;2.42;;;;;;;;;;5023511;28;20049;-63
2022/08/23 06:51:27;;;;;;;9.20;3.35;;;;;;;;;;5029558;28;20060;-64
2022/08/23 06:53:55;;;;;;;12.13;4.63;;;;;;;;;;5023254;28;20053;-66
2022/08/23 06:56:25;;;;;;;5.13;2.38;;;;;;;;;;5028887;28;20091;-65
2022/08/23 06:58:52;;;;;;;7.13;3.10;;;;;;;;;;5023191;28;20115;-64
2022/08/23 07:01:22;;;;;;;3.75;1.75;;;;;;;;;;5027636;28;20049;-65
2022/08/23 07:03:54;;;;;;;5.20;2.35;;;;;;;;;;5029134;28;20058;-64
2022/08/23 07:06:20;;;;;;;4.00;2.20;;;;;;;;;;5027328;28;20076;-63
2022/08/23 07:08:47;;;;;;;9.07;3.38;;;;;;;;;;5023777;28;20061;-64
2022/08/23 07:11:14;;;;;;;10.27;5.53;;;;;;;;;;5028653;28;20049;-65
2022/08/23 07:13:41;;;;;;;15.23;5.18;;;;;;;;;;5023192;28;20053;-64
2022/08/23 07:16:07;;;;;;;9.30;4.50;;;;;;;;;;5030147;28;20057;-64
2022/08/23 07:18:35;;;;;;;10.27;4.40;;;;;;;;;;5020897;28;20111;-64
2022/08/23 07:21:04;;;;;;;18.90;5.50;;;;;;;;;;5009761;28;20112;-65
2022/08/23 07:23:32;;;;;;;7.50;3.90;;;;;;;;;;5007627;28;20149;-60
2022/08/23 07:25:58;;;;;;;13.35;5.20;;;;;;;;;;5028069;28;20077;-64
2022/08/23 07:28:25;;;;;;;8.65;3.90;;;;;;;;;;5028830;28;20056;-62
2022/08/23 07:30:55;;;;;;;8.05;2.58;;;;;;;;;;5023138;28;20053;-64
2022/08/23 07:33:27;;;;;;;13.95;6.20;;;;;;;;;;5028918;28;20056;-62
2022/08/23 07:35:55;;;;;;;12.40;5.82;;;;;;;;;;5022064;28;20054;-65
2022/08/23 07:38:22;;;;;;;13.40;5.70;;;;;;;;;;5029120;28;20095;-65
2022/08/23 07:40:49;;;;;;;11.73;4.28;;;;;;;;;;5023795;28;20053;-65
2022/08/23 07:43:16;;;;;;;11.60;5.63;;;;;;;;;;5030204;28;20045;-65
2022/08/23 07:45:43;;;;;;;16.38;6.53;;;;;;;;;;5023079;28;20060;-64
2022/08/23 07:48:10;;;;;;;16.92;6.97;;;;;;;;;;5028084;28;20137;-64
2022/08/23 07:50:39;;;;;;;12.38;5.80;;;;;;;;;;5013062;28;20135;-62
2022/08/23 07:53:08;;;;;;;16.40;7.47;;;;;;;;;;5028221;28;20049;-64
2022/08/23 07:55:35;;;;;;;14.05;7.80;;;;;;;;;;5022886;28;20045;-64
2022/08/23 07:58:01;;;;;;;14.80;7.55;;;;;;;;;;5028963;28;20084;-62
2022/08/23 08:00:28;;;;;;;10.60;6.28;;;;;;;;;;5023280;28;20059;-65
2022/08/23 08:02:55;;;;;;;19.58;8.35;;;;;;;;;;5027538;28;20049;-65
2022/08/23 08:05:21;;;;;;;13.40;6.03;;;;;;;;;;5022403;28;20113;-65
2022/08/23 08:07:48;;;;;;;20.10;8.88;;;;;;;;;;5025441;28;20053;-63
2022/08/23 08:10:16;;;;;;;14.50;6.93;;;;;;;;;;5027805;28;20111;-65
2022/08/23 08:12:42;;;;;;;13.25;6.10;;;;;;;;;;5021431;28;20045;-63
2022/08/23 08:15:09;;;;;;;13.82;5.53;;;;;;;;;;5027959;28;20045;-62
2022/08/23 08:17:36;;;;;;;16.05;7.88;;;;;;;;;;5022177;28;20049;-65
2022/08/23 08:20:03;;;;;;;16.15;6.88;;;;;;;;;;5026445;28;20053;-64
2022/08/23 08:22:30;;;;;;;19.75;7.93;;;;;;;;;;5022111;28;20045;-65
2022/08/23 08:24:57;;;;;;;16.83;6.80;;;;;;;;;;5027572;28;20061;-62
2022/08/23 08:27:26;;;;;;;9.32;4.80;;;;;;;;;;5021312;28;20140;-63
2022/08/23 08:29:53;;;;;;;11.68;5.80;;;;;;;;;;5027434;28;20140;-65
2022/08/23 08:32:20;;;;;;;15.17;6.83;;;;;;;;;;5021714;28;20057;-63
2022/08/23 08:34:47;;;;;;;12.57;6.30;;;;;;;;;;5027235;28;20144;-64
2022/08/23 08:37:13;;;;;;;11.30;4.85;;;;;;;;;;5021761;28;20069;-65
2022/08/23 08:39:44;;;;;;;12.40;4.53;;;;;;;;;;5026808;28;20049;-63
2022/08/23 08:42:19;;;;;;;12.85;5.40;;;;;;;;;;5020539;28;20059;-64
2022/08/23 08:44:51;;;;;;;15.05;5.28;;;;;;;;;;5019650;28;20053;-63
2022/08/23 08:47:21;;;;;;;13.52;4.90;;;;;;;;;;5014389;28;20076;-65
2022/08/23 08:49:50;;;;;;;18.48;6.20;;;;;;;;;;5027217;28;20111;-65
2022/08/23 08:52:20;;;;;;;13.75;5.45;;;;;;;;;;5004519;28;20050;-63
2022/08/23 08:54:48;;;;;;;15.05;5.25;;;;;;;;;;5026661;28;20053;-63
2022/08/23 08:57:17;;;;;;;11.35;4.97;;;;;;;;;;5020834;28;20099;-61
2022/08/23 08:59:46;;;;;;;;;;;;;;;;;;5027948;28;20099;-65
2022/08/23 09:02:17;;;;;;;14.10;5.05;;;;;;;;;;5026861;28;19990;-63
2022/08/23 09:04:44;;;;;;;12.65;5.93;;;;;;;;;;5022344;28;20049;-60
2022/08/23 09:07:15;;;;;;;23.67;5.70;;;;;;;;;;5023622;28;20057;-63
2022/08/23 09:09:53;;;;;;;8.65;3.88;;;;;;;;;;5020192;28;20057;-61
2022/08/23 09:12:24;;;;;;;12.23;4.95;;;;;;;;;;5026064;28;20042;-65
2022/08/23 09:14:59;;;;;;;21.25;6.03;;;;;;;;;;5019581;28;20053;-61
2022/08/23 09:17:33;;;;;;;12.43;5.20;;;;;;;;;;5026463;28;20050;-65
2022/08/23 09:20:02;;;;;;;11.07;4.07;;;;;;;;;;5020931;28;20049;-64
2022/08/23 09:22:33;;;;;;;13.60;4.70;;;;;;;;;;5027024;28;20050;-65
2022/08/23 09:25:00;;;;;;;7.75;3.33;;;;;;;;;;5021228;28;20083;-64
2022/08/23 09:27:26;;;;;;;11.18;3.95;;;;;;;;;;5026384;28;20129;-65
2022/08/23 09:29:56;;;;;;;12.18;3.90;;;;;;;;;;5020311;28;20053;-63
2022/08/23 09:32:29;;;;;;;10.45;3.50;;;;;;;;;;5024674;28;20049;-63
2022/08/23 09:35:05;;;;;;;12.02;3.75;;;;;;;;;;5020899;28;20045;-66
2022/08/23 09:37:45;;;;;;;14.43;4.82;;;;;;;;;;5011657;28;20045;-64
2022/08/23 09:40:19;;;;;;;13.73;3.47;;;;;;;;;;5022746;28;20057;-64
2022/08/23 09:42:46;;;;;;;8.10;2.63;;;;;;;;;;5026752;28;20058;-62
2022/08/23 09:45:27;;;;;;;10.55;4.55;;;;;;;;;;5019896;28;20053;-65
2022/08/23 09:47:55;;;;;;;10.45;2.88;;;;;;;;;;5026536;28;20060;-64
2022/08/23 09:50:26;;;;;;;11.43;3.10;;;;;;;;;;5020263;28;20053;-63
2022/08/23 09:52:55;;;;;;;8.00;2.30;;;;;;;;;;5026233;28;20049;-63
2022/08/23 09:55:27;;;;;;;10.55;2.53;;;;;;;;;;5021090;28;20115;-64
2022/08/23 09:57:54;;;;;;;10.98;2.70;;;;;;;;;;5021683;28;20062;-66
2022/08/23 10:00:25;;;;;;;7.47;2.70;;;;;;;;;;5005934;28;20072;-65
2022/08/23 10:02:56;;;;;;;11.07;2.60;;;;;;;;;;5025582;28;20064;-65
2022/08/23 10:05:30;;;;;;;8.75;2.70;;;;;;;;;;5019453;28;20048;-63
2022/08/23 10:07:58;;;;;;;11.32;2.67;;;;;;;;;;5025904;28;20056;-65
2022/08/23 10:10:27;;;;;;;9.05;3.00;;;;;;;;;;5020571;28;20099;-61
2022/08/23 10:12:54;;;;;;;8.20;2.30;;;;;;;;;;5027562;28;20053;-65
2022/08/23 10:15:22;;;;;;;9.73;2.63;;;;;;;;;;5023898;28;20054;-65
2022/08/23 10:17:51;;;;;;;12.60;2.72;;;;;;;;;;5030382;28;20059;-63
2022/08/23 10:20:25;;;;;;;10.52;2.38;;;;;;;;;;5031205;28;20137;-65
2022/08/23 10:22:55;;;;;;;4.55;1.98;;;;;;;;;;5029886;28;20057;-63
2022/08/23 10:25:25;;;;;;;10.80;2.38;;;;;;;;;;5030742;28;20140;-66
2022/08/23 10:30:46;;;;;;;4.68;1.63;;;;;;;;;;5031093;28;20056;-66
2022/08/23 10:33:17;;;;;;;10.10;2.33;;;;;;;;;;5027894;28;20061;-65
2022/08/23 10:35:47;;;;;;;6.35;2.28;;;;;;;;;;5030397;28;20060;-66
2022/08/23 10:38:31;;;;;;;16.83;2.90;;;;;;;;;;5025822;28;20053;-66
2022/08/23 10:41:11;;;;;;;10.48;3.50;;;;;;;;;;5022616;28;20049;-65
2022/08/23 10:43:42;;;;;;;6.10;2.25;;;;;;;;;;5027629;28;20061;-66
2022/08/23 10:46:09;;;;;;;13.43;3.25;;;;;;;;;;5029745;28;20068;-66
2022/08/23 10:48:37;;;;;;;9.93;2.97;;;;;;;;;;5024158;28;20056;-63
2022/08/23 10:51:08;;;;;;;10.63;3.33;;;;;;;;;;5029795;28;20115;-60
2022/08/23 10:53:38;;;;;;;12.68;4.13;;;;;;;;;;5023818;28;20255;-57
2022/08/23 10:56:06;;;;;;;8.13;2.72;;;;;;;;;;5028968;28;20100;-60
2022/08/23 10:58:40;;;;;;;14.15;4.72;;;;;;;;;;5023479;28;20085;-60
2022/08/23 11:01:09;;;;;;;5.90;2.33;;;;;;;;;;5029794;28;20060;-60
2022/08/23 11:03:42;;;;;;;8.18;2.45;;;;;;;;;;5010350;28;20116;-65
2022/08/23 11:06:39;;;;;;;11.65;3.10;;;;;;;;;;5010681;28;20073;-63
2022/08/23 11:09:08;;;;;;;12.40;3.58;;;;;;;;;;4965658;28;20055;-64
2022/08/23 11:11:42;;;;;;;7.45;2.28;;;;;;;;;;5033678;28;20084;-66
2022/08/23 11:14:09;;;;;;;9.18;2.55;;;;;;;;;;5023214;28;20045;-66
2022/08/23 11:16:37;;;;;;;12.57;2.63;;;;;;;;;;5030839;28;20046;-63
2022/08/23 11:19:03;;;;;;;7.38;1.63;;;;;;;;;;5024331;28;20053;-63
2022/08/23 11:21:47;;;;;;;8.05;2.15;;;;;;;;;;5029013;28;20081;-63
2022/08/23 11:24:48;;;;;;;12.05;2.03;;;;;;;;;;5022687;28;20053;-65
2022/08/23 11:27:25;;;;;;;10.55;2.15;;;;;;;;;;5028054;28;20107;-63
2022/08/23 11:29:52;;;;;;;9.68;2.50;;;;;;;;;;5022811;28;20161;-64
2022/08/23 11:32:26;;;;;;;7.95;2.08;;;;;;;;;;5028631;28;20045;-61
2022/08/23 11:34:58;;;;;;;9.32;3.10;;;;;;;;;;5023506;28;20061;-62
2022/08/23 11:37:27;;;;;;;8.95;2.05;;;;;;;;;;5028237;28;20053;-64
2022/08/23 11:40:09;;;;;;;8.50;2.55;;;;;;;;;;5023527;28;20092;-62
2022/08/23 11:42:48;;;;;;;6.93;2.05;;;;;;;;;;5027659;28;20053;-60
2022/08/23 11:45:23;;;;;;;9.85;2.70;;;;;;;;;;5022573;28;20064;-65
2022/08/23 11:47:52;;;;;;;5.03;2.10;;;;;;;;;;5026080;28;20057;-60
2022/08/23 11:50:24;;;;;;;9.63;3.25;;;;;;;;;;5011121;28;20053;-64
2022/08/23 11:53:06;;;;;;;6.68;2.15;;;;;;;;;;5009431;28;20060;-60
2022/08/23 11:55:49;;;;;;;3.55;1.60;;;;;;;;;;5016025;28;20053;-61
2022/08/23 11:58:22;;;;;;;4.43;1.83;;;;;;;;;;5027817;28;20057;-63
2022/08/23 12:01:13;;;;;;;8.65;2.35;;;;;;;;;;5022793;28;20052;-60
2022/08/23 12:03:51;;;;;;;8.90;2.22;;;;;;;;;;5009254;28;20100;-58
2022/08/23 12:06:51;;;;;;;7.05;2.28;;;;;;;;;;5017522;28;20081;-61
2022/08/23 12:09:34;;;;;;;7.88;2.20;;;;;;;;;;4988039;28;20050;-61
2022/08/23 12:12:22;;;;;;;10.88;2.05;;;;;;;;;;4953142;28;20112;-61
2022/08/23 12:14:53;;;;;;;5.85;1.70;;;;;;;;;;4994744;28;20054;-67
2022/08/23 12:17:38;;;;;;;7.00;2.03;;;;;;;;;;5022802;28;20058;-62
2022/08/23 12:20:09;;;;;;;8.55;2.08;;;;;;;;;;5004214;28;20065;-66
2022/08/23 12:22:53;;;;;;;7.63;1.83;;;;;;;;;;5024569;28;20140;-66
2022/08/23 12:25:20;;;;;;;6.70;1.92;;;;;;;;;;5004803;28;20046;-61
2022/08/23 12:27:49;;;;;;;5.60;1.70;;;;;;;;;;5007587;28;20070;-66
2022/08/23 12:30:21;;;;;;;4.00;1.55;;;;;;;;;;5008404;28;20057;-66
2022/08/23 12:32:54;;;;;;;5.63;1.77;;;;;;;;;;5021898;28;20080;-60
2022/08/23 12:35:29;;;;;;;4.22;1.90;;;;;;;;;;5027228;28;20056;-63
2022/08/23 12:38:01;;;;;;;5.53;1.60;;;;;;;;;;5021711;28;20144;-62
2022/08/23 12:40:31;;;;;;;7.05;1.70;;;;;;;;;;5004956;28;20050;-63
2022/08/23 12:43:04;;;;;;;8.05;1.92;;;;;;;;;;5021885;28;20150;-65
2022/08/23 12:45:37;;;;;;;5.45;1.90;;;;;;;;;;5027915;28;20211;-64
2022/08/23 12:48:07;;;;;;;5.30;1.73;;;;;;;;;;5022713;28;20056;-63
2022/08/23 12:50:35;;;;;;;4.63;1.90;;;;;;;;;;5028520;28;20141;-61
2022/08/23 12:53:03;;;;;;;5.03;1.50;;;;;;;;;;5039515;28;20049;-67
2022/08/23 12:55:31;;;;;;;8.00;1.90;;;;;;;;;;5028129;28;20054;-66
2022/08/23 12:57:58;;;;;;;4.82;1.45;;;;;;;;;;5020839;28;20061;-64
2022/08/23 13:00:26;;;;;;;8.65;1.70;;;;;;;;;;5027144;28;20037;-61
2022/08/23 13:02:57;;;;;;;4.38;1.77;;;;;;;;;;5019977;28;20095;-66
2022/08/23 13:05:29;;;;;;;7.78;1.55;;;;;;;;;;5027049;28;20065;-66
2022/08/23 13:07:56;;;;;;;8.75;1.80;;;;;;;;;;5021161;28;20140;-63
2022/08/23 13:10:25;;;;;;;6.05;1.20;;;;;;;;;;5026890;28;20053;-64
2022/08/23 13:12:52;;;;;;;4.07;1.42;;;;;;;;;;5020499;28;20057;-64
2022/08/23 13:15:33;;;;;;;2.67;1.30;;;;;;;;;;5026829;28;20057;-63
2022/08/23 13:18:01;;;;;;;6.57;2.22;;;;;;;;;;5019950;28;20099;-63
2022/08/23 13:20:28;;;;;;;2.78;1.40;;;;;;;;;;5028120;28;20111;-66
2022/08/23 13:22:56;;;;;;;6.43;1.55;;;;;;;;;;5023890;28;20045;-67
2022/08/23 13:25:25;;;;;;;3.13;1.13;;;;;;;;;;5027572;28;20152;-67
2022/08/23 13:27:53;;;;;;;3.88;1.38;;;;;;;;;;5023460;28;20053;-66
2022/08/23 13:30:22;;;;;;;2.63;1.10;;;;;;;;;;5026809;28;20081;-61
2022/08/23 13:32:49;;;;;;;4.82;1.30;;;;;;;;;;5026520;28;20128;-64
2022/08/23 13:35:30;;;;;;;3.30;1.58;;;;;;;;;;5022304;28;20049;-67
2022/08/23 13:37:59;;;;;;;3.70;1.52;;;;;;;;;;5026159;28;20053;-64
2022/08/23 13:40:28;;;;;;;3.63;1.10;;;;;;;;;;5020519;28;20053;-59
2022/08/23 13:42:57;;;;;;;4.05;1.30;;;;;;;;;;5026563;28;20061;-60
2022/08/23 13:45:26;;;;;;;2.72;1.33;;;;;;;;;;5021267;28;20053;-66
2022/08/23 13:47:55;;;;;;;4.53;1.63;;;;;;;;;;5027893;28;20061;-61
2022/08/23 13:50:24;;;;;;;3.53;1.40;;;;;;;;;;5025224;28;20064;-65
2022/08/23 13:52:52;;;;;;;2.50;1.23;;;;;;;;;;5030463;28;20057;-64
2022/08/23 13:55:18;;;;;;;;;;;;;;;;;;5016856;28;20053;-60
2022/08/23 13:57:44;;;;;;;3.28;1.38;;;;;;;;;;5030238;28;19931;-66
2022/08/23 14:00:12;;;;;;;4.60;1.30;;;;;;;;;;5024312;28;20080;-66
2022/08/23 14:02:39;;;;;;;2.30;1.25;;;;;;;;;;5030506;28;20045;-63
2022/08/23 14:05:06;;;;;;;3.93;1.30;;;;;;;;;;5016305;28;20068;-63
2022/08/23 14:07:33;;;;;;;5.00;1.33;;;;;;;;;;5028347;28;20123;-64
2022/08/23 14:10:02;;;;;;;6.18;1.33;;;;;;;;;;5020085;28;20074;-64
2022/08/23 14:12:30;;;;;;;3.15;1.20;;;;;;;;;;5026664;28;20107;-66
2022/08/23 14:14:57;;;;;;;2.67;1.02;;;;;;;;;;5011864;28;20045;-65
2022/08/23 14:17:24;;;;;;;3.67;1.33;;;;;;;;;;5026668;28;20057;-64
2022/08/23 14:19:50;;;;;;;4.85;1.60;;;;;;;;;;5020828;28;20061;-62
2022/08/23 14:22:17;;;;;;;3.00;1.30;;;;;;;;;;5027718;28;20085;-61
2022/08/23 14:24:44;;;;;;;3.17;1.50;;;;;;;;;;5026132;28;20079;-65
2022/08/23 14:27:13;;;;;;;2.72;1.50;;;;;;;;;;5022018;28;20049;-62
2022/08/23 14:29:40;;;;;;;5.28;1.35;;;;;;;;;;5023979;28;20057;-66
2022/08/23 14:32:06;;;;;;;2.95;1.20;;;;;;;;;;5020526;28;20065;-65
2022/08/23 14:34:33;;;;;;;4.72;1.40;;;;;;;;;;5025390;28;20045;-64
2022/08/23 14:36:59;;;;;;;4.25;1.35;;;;;;;;;;5020125;28;20076;-66
2022/08/23 14:39:26;;;;;;;4.18;1.27;;;;;;;;;;5024185;28;20053;-65
2022/08/23 14:41:53;;;;;;;5.28;1.30;;;;;;;;;;5020774;28;20096;-66
2022/08/23 14:44:21;;;;;;;5.68;1.45;;;;;;;;;;5026083;28;20044;-61
2022/08/23 14:46:49;;;;;;;2.67;1.35;;;;;;;;;;5021012;28;20046;-64
2022/08/23 14:49:16;;;;;;;3.17;1.20;;;;;;;;;;5022196;28;20061;-64
2022/08/23 14:51:44;;;;;;;2.08;1.30;;;;;;;;;;5019424;28;20058;-64
2022/08/23 14:54:11;;;;;;;;;;;;;;;;;;5025953;28;20064;-63
2022/08/23 14:56:38;;;;;;;6.38;1.40;;;;;;;;;;5017818;28;19921;-64
2022/08/23 14:59:04;;;;;;;3.28;1.10;;;;;;;;;;5024184;28;20068;-65
2022/08/23 15:01:33;;;;;;;4.18;1.10;;;;;;;;;;5015705;28;20054;-65
2022/08/23 15:04:00;;;;;;;2.35;1.15;;;;;;;;;;5025596;28;20064;-64
2022/08/23 15:06:27;;;;;;;2.50;1.20;;;;;;;;;;5025254;28;20057;-64